createdAt,value
2022-12-14T00:00:38.320Z,30.43
2022-12-14T00:05:38.506Z,30.54
2022-12-14T00:10:36.677Z,29.74
2022-12-14T00:15:35.919Z,30.05
2022-12-14T00:20:34.154Z,29.64
2022-12-14T00:25:34.470Z,29.04
2022-12-14T00:30:33.765Z,28.25
2022-12-14T00:35:33.060Z,27.66
2022-12-14T00:40:32.378Z,26.94
2022-12-14T00:45:31.676Z,26.32
2022-12-14T00:50:32.022Z,25.76
2022-12-14T00:55:30.117Z,25.24
2022-12-14T01:00:29.420Z,24.81
2022-12-14T01:05:28.738Z,24.31
2022-12-14T01:10:29.044Z,23.95
2022-12-14T01:15:27.345Z,23.58
2022-12-14T01:20:26.682Z,23.25
2022-12-14T01:25:26.036Z,22.91
2022-12-14T01:30:26.173Z,22.60
2022-12-14T01:35:26.506Z,22.28
2022-12-14T01:40:25.767Z,21.96
2022-12-14T01:45:25.043Z,21.64
2022-12-14T01:50:22.319Z,21.38
2022-12-14T01:55:21.630Z,21.16
2022-12-14T02:00:21.907Z,20.95
2022-12-14T02:05:20.203Z,20.72
2022-12-14T02:10:19.461Z,20.55
2022-12-14T02:15:18.747Z,20.35
2022-12-14T02:20:17.079Z,20.35
2022-12-14T02:25:18.198Z,21.09
2022-12-14T02:30:17.498Z,22.65
2022-12-14T02:35:15.833Z,23.04
2022-12-14T02:40:16.142Z,23.00
2022-12-14T02:45:16.433Z,22.83
2022-12-14T02:50:14.766Z,22.64
2022-12-14T02:55:14.109Z,22.47
2022-12-14T03:00:12.417Z,22.22
2022-12-14T03:05:12.731Z,22.03
2022-12-14T03:10:11.060Z,21.77
2022-12-14T03:15:11.349Z,21.58
2022-12-14T03:20:10.615Z,21.34
2022-12-14T03:25:08.905Z,21.06
2022-12-14T03:30:09.203Z,20.82
2022-12-14T03:35:07.466Z,20.59
2022-12-14T03:40:12.866Z,20.59
2022-12-14T03:45:06.940Z,22.21
2022-12-14T03:50:06.229Z,24.15
2022-12-14T03:55:04.521Z,24.88
2022-12-14T04:00:03.831Z,24.53
2022-12-14T04:05:05.144Z,24.12
2022-12-14T04:10:03.438Z,23.78
2022-12-14T04:15:01.715Z,23.38
2022-12-14T04:20:01.030Z,23.02
2022-12-14T04:25:00.295Z,22.64
2022-12-14T04:30:00.586Z,22.28
2022-12-14T04:34:58.855Z,22.00
2022-12-14T04:40:00.143Z,21.67
2022-12-14T04:44:57.386Z,21.43
2022-12-14T04:49:57.680Z,21.19
2022-12-14T04:54:56.958Z,20.87
2022-12-14T04:59:56.233Z,20.58
2022-12-14T05:04:54.502Z,20.82
2022-12-14T05:09:54.812Z,23.04
2022-12-14T05:14:56.085Z,24.87
2022-12-14T05:19:52.389Z,25.85
2022-12-14T05:24:51.679Z,25.52
2022-12-14T05:29:50.964Z,25.02
2022-12-14T05:34:50.260Z,24.53
2022-12-14T05:39:50.544Z,24.13
2022-12-14T05:44:48.855Z,23.76
2022-12-14T05:49:49.419Z,23.27
2022-12-14T05:54:48.435Z,22.75
2022-12-14T05:59:46.773Z,22.40
2022-12-14T06:04:46.161Z,22.03
2022-12-14T06:09:45.238Z,21.71
2022-12-14T06:14:44.518Z,21.43
2022-12-14T06:19:50.058Z,21.12
2022-12-14T06:24:42.976Z,20.84
2022-12-14T06:29:42.274Z,20.55
2022-12-14T06:34:42.512Z,21.12
2022-12-14T06:39:40.923Z,25.33
2022-12-14T06:44:40.240Z,27.67
2022-12-14T06:49:39.563Z,29.15
2022-12-14T06:54:38.880Z,30.17
2022-12-14T06:59:38.191Z,30.70
2022-12-14T07:04:37.492Z,31.32
2022-12-14T07:09:36.814Z,31.89
2022-12-14T07:14:37.150Z,31.65
2022-12-14T07:19:35.468Z,31.46
2022-12-14T07:24:35.638Z,31.76
2022-12-14T07:29:35.027Z,32.11
2022-12-14T07:34:33.055Z,32.06
2022-12-14T07:39:33.356Z,32.55
2022-12-14T07:44:31.676Z,32.93
2022-12-14T07:49:33.087Z,33.01
2022-12-14T07:54:30.184Z,33.12
2022-12-14T07:59:30.507Z,33.51
2022-12-14T08:04:28.856Z,33.66
2022-12-14T08:09:28.993Z,33.49
2022-12-14T08:14:27.346Z,33.19
2022-12-14T08:19:26.494Z,33.12
2022-12-14T08:24:25.669Z,33.15
2022-12-14T08:29:25.808Z,33.03
2022-12-14T08:34:24.148Z,33.00
2022-12-14T08:39:23.430Z,33.35
2022-12-14T08:44:21.692Z,33.79
2022-12-14T08:49:26.418Z,33.68
2022-12-14T08:54:21.300Z,33.23
2022-12-14T08:59:52.097Z,32.63
2022-12-14T09:04:25.752Z,31.85
2022-12-14T09:09:20.056Z,31.43
2022-12-14T09:14:18.347Z,31.16
2022-12-14T09:19:18.679Z,32.21
2022-12-14T09:24:18.001Z,32.81
2022-12-14T09:29:16.332Z,33.29
2022-12-14T09:34:15.456Z,33.66
2022-12-14T09:39:14.806Z,33.87
2022-12-14T09:44:18.180Z,33.73
2022-12-14T09:49:13.103Z,34.06
2022-12-14T09:54:13.399Z,33.95
2022-12-14T09:59:11.694Z,33.94
2022-12-14T10:04:11.135Z,33.29
2022-12-14T10:09:10.335Z,32.66
2022-12-14T10:14:08.447Z,33.37
2022-12-14T10:19:09.194Z,32.92
2022-12-14T10:24:07.946Z,33.47
2022-12-14T10:29:08.290Z,34.12
2022-12-14T10:34:12.042Z,34.21
2022-12-14T10:39:06.732Z,34.27
2022-12-14T10:44:05.009Z,34.28
2022-12-14T10:49:06.275Z,34.08
2022-12-14T10:54:05.576Z,33.81
2022-12-14T10:59:02.849Z,32.78
2022-12-14T11:04:02.131Z,31.86
2022-12-14T11:09:01.412Z,31.10
2022-12-14T11:14:00.711Z,30.17
2022-12-14T11:19:01.012Z,29.30
2022-12-14T11:23:59.309Z,28.55
2022-12-14T11:28:58.897Z,27.84
2022-12-14T11:33:57.835Z,27.28
2022-12-14T11:38:57.043Z,26.81
2022-12-14T11:43:56.157Z,26.21
2022-12-14T11:48:56.117Z,25.73
2022-12-14T11:53:54.480Z,25.25
2022-12-14T11:58:53.640Z,24.73
2022-12-14T12:03:53.029Z,24.42
2022-12-14T12:08:52.192Z,24.03
2022-12-14T12:13:51.334Z,23.72
2022-12-14T12:18:50.496Z,23.38
2022-12-14T12:23:49.601Z,23.05
2022-12-14T12:28:49.997Z,22.77
2022-12-14T12:33:49.278Z,22.51
2022-12-14T12:38:49.849Z,22.22
2022-12-14T12:43:50.003Z,21.92
2022-12-14T12:48:46.142Z,21.72
2022-12-14T12:53:45.314Z,21.52
2022-12-14T12:58:49.042Z,21.35
2022-12-14T13:03:43.608Z,21.14
2022-12-14T13:08:42.743Z,20.99
2022-12-14T13:13:41.855Z,20.85
2022-12-14T13:18:59.636Z,20.70
2022-12-14T13:23:45.115Z,20.59
2022-12-14T13:28:40.643Z,20.42
2022-12-14T13:33:38.821Z,20.32
2022-12-14T13:38:42.016Z,20.20
2022-12-14T13:43:37.252Z,20.08
2022-12-14T13:48:36.423Z,19.98
2022-12-14T13:53:34.628Z,19.91
2022-12-14T13:58:35.827Z,19.80
2022-12-14T14:03:35.352Z,19.73
2022-12-14T14:08:39.320Z,19.66
2022-12-14T14:13:33.270Z,19.56
2022-12-14T14:18:30.868Z,19.48
2022-12-14T14:23:30.754Z,19.41
2022-12-14T14:28:29.977Z,19.36
2022-12-14T14:33:47.715Z,19.26
2022-12-14T14:38:28.966Z,19.18
2022-12-14T14:43:27.601Z,19.11
2022-12-14T14:48:27.041Z,19.02
2022-12-14T14:53:25.936Z,18.95
2022-12-14T14:58:24.119Z,18.88
2022-12-14T15:03:24.391Z,18.81
2022-12-14T15:08:23.574Z,18.76
2022-12-14T15:13:23.050Z,18.67
2022-12-14T15:18:22.208Z,18.63
2022-12-14T15:23:23.670Z,18.54
2022-12-14T15:28:21.038Z,18.45
2022-12-14T15:33:20.057Z,18.39
2022-12-14T15:38:19.243Z,18.37
2022-12-14T15:43:17.538Z,18.39
2022-12-14T15:48:17.783Z,18.39
2022-12-14T15:53:16.988Z,18.41
2022-12-14T15:58:16.213Z,18.39
2022-12-14T16:03:16.420Z,18.37
2022-12-14T16:08:14.641Z,18.35
2022-12-14T16:13:12.827Z,18.27
2022-12-14T16:18:12.066Z,18.25
2022-12-14T16:23:12.317Z,18.20
2022-12-14T16:28:11.467Z,18.12
2022-12-14T16:33:09.779Z,18.05
2022-12-14T16:38:09.997Z,18.02
2022-12-14T16:43:09.503Z,17.93
2022-12-14T16:48:07.696Z,17.86
2022-12-14T16:53:07.765Z,17.78
2022-12-14T16:58:07.154Z,17.75
2022-12-14T17:03:06.388Z,17.74
2022-12-14T17:08:04.549Z,17.92
2022-12-14T17:13:05.014Z,18.03
2022-12-14T17:18:03.162Z,18.10
2022-12-14T17:23:03.480Z,18.17
2022-12-14T17:28:01.631Z,18.21
2022-12-14T17:33:01.859Z,18.21
2022-12-14T17:38:01.396Z,18.18
2022-12-14T17:43:00.263Z,18.15
2022-12-14T17:48:18.858Z,18.10
2022-12-14T17:52:59.023Z,18.03
2022-12-14T17:57:58.454Z,17.93
2022-12-14T18:02:57.516Z,20.42
2022-12-14T18:07:56.766Z,22.55
2022-12-14T18:12:55.718Z,24.09
2022-12-14T18:17:57.427Z,26.17
2022-12-14T18:22:54.536Z,27.34
2022-12-14T18:27:53.474Z,28.56
2022-12-14T18:32:53.070Z,28.37
2022-12-14T18:37:53.006Z,28.81
2022-12-14T18:42:52.717Z,29.43
2022-12-14T18:47:50.876Z,29.67
2022-12-14T18:52:50.000Z,29.95
2022-12-14T18:57:49.505Z,30.11
2022-12-14T19:02:50.159Z,30.17
2022-12-14T19:07:48.496Z,30.97
2022-12-14T19:12:55.156Z,31.29
2022-12-14T19:17:45.085Z,31.56
2022-12-14T19:22:47.535Z,31.80
2022-12-14T19:28:25.619Z,32.08
2022-12-14T19:32:44.773Z,32.40
2022-12-14T19:38:02.974Z,32.13
2022-12-14T19:42:42.256Z,31.68
2022-12-14T19:47:42.573Z,31.72
2022-12-14T19:52:41.739Z,31.93
2022-12-14T19:57:40.528Z,32.08
2022-12-14T20:02:39.441Z,32.01
2022-12-14T20:07:43.767Z,32.13
2022-12-14T20:12:37.818Z,32.15
2022-12-14T20:17:37.977Z,32.28
2022-12-14T20:22:37.199Z,32.51
2022-12-14T20:27:40.654Z,32.62
2022-12-14T20:32:34.652Z,32.78
2022-12-14T20:37:33.854Z,32.87
2022-12-14T20:42:32.985Z,33.26
2022-12-14T20:47:32.102Z,32.81
2022-12-14T20:52:31.322Z,32.43
2022-12-14T20:57:31.140Z,32.60
2022-12-14T21:02:30.540Z,32.55
2022-12-14T21:07:28.636Z,32.55
2022-12-14T21:12:29.141Z,32.94
2022-12-14T21:17:27.099Z,33.04
2022-12-14T21:22:26.500Z,33.35
2022-12-14T21:27:25.630Z,33.47
2022-12-14T21:32:25.183Z,33.68
2022-12-14T21:37:23.171Z,33.71
2022-12-14T21:42:23.362Z,33.75
2022-12-14T21:47:22.519Z,33.69
2022-12-14T21:52:21.863Z,33.61
2022-12-14T21:57:21.181Z,33.22
2022-12-14T22:02:20.652Z,32.37
2022-12-14T22:07:20.668Z,32.55
2022-12-14T22:12:19.981Z,32.78
2022-12-14T22:17:18.227Z,32.93
2022-12-14T22:22:17.480Z,33.31
2022-12-14T22:27:16.765Z,33.41
2022-12-14T22:32:16.159Z,33.69
2022-12-14T22:37:16.349Z,33.78
2022-12-14T22:42:14.713Z,33.59
2022-12-14T22:47:13.867Z,33.61
2022-12-14T22:52:13.015Z,33.41
2022-12-14T22:57:13.135Z,33.16
2022-12-14T23:02:12.635Z,33.15
2022-12-14T23:07:11.706Z,33.15
2022-12-14T23:12:11.657Z,33.54
2022-12-14T23:17:11.120Z,33.88
2022-12-14T23:22:09.429Z,33.87
2022-12-14T23:27:09.897Z,33.39
2022-12-14T23:32:06.993Z,32.88
2022-12-14T23:37:06.309Z,32.00
2022-12-14T23:42:05.624Z,31.32
2022-12-14T23:47:06.940Z,30.73
2022-12-14T23:52:04.258Z,30.29
2022-12-14T23:57:04.562Z,30.55
